Time;durP1;ratioP1;P1;durP2;ratioP2;P2;SDS_P1;SDS_P2;PMS_P1;PMS_P2;Temp;Humidity;BMP_temperature;BMP_pressure;BME280_temperature;BME280_humidity;BME280_pressure;Samples;Min_cycle;Max_cycle;Signal;HPM_P1;HPM_P2
2022/08/15 00:02:00;;;;;;;31.33;26.13;;;;;;;;;;5053263;28;20029;-69
2022/08/15 00:04:27;;;;;;;37.55;26.52;;;;;;;;;;5053275;28;20021;-70
2022/08/15 00:06:53;;;;;;;35.80;26.50;;;;;;;;;;5053119;28;20033;-69
2022/08/15 00:09:21;;;;;;;37.40;25.70;;;;;;;;;;5053252;28;20438;-70
2022/08/15 00:11:49;;;;;;;34.85;27.17;;;;;;;;;;5053213;28;20036;-69
2022/08/15 00:14:17;;;;;;;40.60;29.00;;;;;;;;;;5035249;28;20086;-68
2022/08/15 00:16:44;;;;;;;34.67;26.85;;;;;;;;;;5053443;28;20060;-69
2022/08/15 00:19:12;;;;;;;33.35;25.02;;;;;;;;;;5053136;28;20482;-70
2022/08/15 00:21:39;;;;;;;33.80;26.33;;;;;;;;;;5053008;28;20481;-69
2022/08/15 00:24:05;;;;;;;34.58;27.05;;;;;;;;;;5053105;28;20067;-70
2022/08/15 00:26:34;;;;;;;38.08;28.50;;;;;;;;;;5053115;28;20078;-70
2022/08/15 00:29:01;;;;;;;33.97;26.95;;;;;;;;;;5053030;28;20100;-69
2022/08/15 00:31:31;;;;;;;34.50;26.33;;;;;;;;;;5035186;28;20111;-68
2022/08/15 00:33:57;;;;;;;40.45;29.55;;;;;;;;;;5053538;28;20118;-70
2022/08/15 00:36:23;;;;;;;34.05;27.50;;;;;;;;;;5052966;28;20025;-69
2022/08/15 00:38:49;;;;;;;34.88;26.27;;;;;;;;;;5053196;28;20105;-68
2022/08/15 00:44:02;;;;;;;38.75;27.98;;;;;;;;;;5053457;28;20108;-70
2022/08/15 00:46:29;;;;;;;33.13;27.15;;;;;;;;;;5053167;28;20029;-69
2022/08/15 00:48:56;;;;;;;34.10;27.65;;;;;;;;;;5052858;28;20017;-71
2022/08/15 00:51:31;;;;;;;35.10;27.55;;;;;;;;;;5052831;28;20025;-69
2022/08/15 00:54:04;;;;;;;36.28;27.90;;;;;;;;;;5053123;28;20049;-69
2022/08/15 00:56:32;;;;;;;39.28;27.15;;;;;;;;;;5053381;28;20021;-69
2022/08/15 00:58:59;;;;;;;33.28;26.10;;;;;;;;;;5052776;28;20017;-70
2022/08/15 01:01:25;;;;;;;38.70;28.17;;;;;;;;;;5052654;28;20029;-70
2022/08/15 01:03:51;;;;;;;35.65;27.75;;;;;;;;;;5052733;28;20021;-68
2022/08/15 01:06:17;;;;;;;36.42;28.20;;;;;;;;;;5053262;28;20021;-69
2022/08/15 01:08:46;;;;;;;33.60;26.27;;;;;;;;;;5052715;28;20074;-69
2022/08/15 01:11:15;;;;;;;37.22;28.35;;;;;;;;;;5052948;28;20025;-69
2022/08/15 01:13:42;;;;;;;37.55;28.20;;;;;;;;;;5052689;28;20478;-69
2022/08/15 01:16:08;;;;;;;39.03;28.27;;;;;;;;;;5052634;28;20485;-68
2022/08/15 01:18:35;;;;;;;33.70;27.10;;;;;;;;;;5054937;28;20095;-69
2022/08/15 01:21:07;;;;;;;35.08;27.88;;;;;;;;;;5056880;28;20025;-69
2022/08/15 01:23:36;;;;;;;37.88;27.05;;;;;;;;;;5056850;28;20103;-69
2022/08/15 01:26:04;;;;;;;36.53;26.80;;;;;;;;;;5056251;28;20509;-69
2022/08/15 01:28:32;;;;;;;37.03;27.40;;;;;;;;;;5056219;28;20025;-70
2022/08/15 01:30:59;;;;;;;34.22;25.45;;;;;;;;;;5056132;28;20052;-69
2022/08/15 01:33:26;;;;;;;37.88;28.48;;;;;;;;;;5056109;28;20424;-68
2022/08/15 01:35:54;;;;;;;40.90;29.10;;;;;;;;;;5056560;28;20033;-69
2022/08/15 01:38:29;;;;;;;38.42;27.45;;;;;;;;;;5038179;28;20025;-70
2022/08/15 01:41:09;;;;;;;37.60;27.40;;;;;;;;;;5038146;28;20028;-69
2022/08/15 01:43:44;;;;;;;32.95;25.45;;;;;;;;;;5056556;28;20036;-69
2022/08/15 01:46:11;;;;;;;34.40;26.00;;;;;;;;;;5056222;28;20021;-69
2022/08/15 01:48:41;;;;;;;33.25;26.58;;;;;;;;;;5055805;28;20028;-68
2022/08/15 01:51:10;;;;;;;35.08;27.63;;;;;;;;;;5056058;28;20017;-69
2022/08/15 01:53:43;;;;;;;34.50;26.80;;;;;;;;;;5055838;28;20556;-69
2022/08/15 01:56:11;;;;;;;35.17;27.05;;;;;;;;;;5056315;28;20051;-69
2022/08/15 01:58:39;;;;;;;34.80;27.13;;;;;;;;;;5056211;28;20024;-69
2022/08/15 02:01:08;;;;;;;33.72;26.15;;;;;;;;;;5055795;28;20025;-69
2022/08/15 02:03:35;;;;;;;36.10;27.05;;;;;;;;;;5055521;28;20455;-70
2022/08/15 02:06:04;;;;;;;38.00;28.20;;;;;;;;;;5055440;28;20096;-68
2022/08/15 02:08:30;;;;;;;38.33;26.85;;;;;;;;;;5055721;28;20021;-70
2022/08/15 02:10:57;;;;;;;39.45;28.77;;;;;;;;;;5055399;28;20163;-68
2022/08/15 02:13:23;;;;;;;40.20;27.75;;;;;;;;;;5055376;28;20032;-70
2022/08/15 02:15:50;;;;;;;35.72;27.88;;;;;;;;;;5055296;28;20020;-70
2022/08/15 02:18:16;;;;;;;38.25;27.75;;;;;;;;;;5055854;28;20036;-70
2022/08/15 02:20:42;;;;;;;40.85;27.70;;;;;;;;;;5055217;28;20063;-69
2022/08/15 02:23:08;;;;;;;39.67;28.25;;;;;;;;;;5055095;28;20060;-68
2022/08/15 02:25:35;;;;;;;36.83;27.05;;;;;;;;;;5055169;28;20021;-69
2022/08/15 02:28:01;;;;;;;35.10;25.10;;;;;;;;;;5055091;28;20457;-69
2022/08/15 02:30:28;;;;;;;37.13;26.27;;;;;;;;;;5054270;28;20021;-69
2022/08/15 02:32:56;;;;;;;33.13;25.05;;;;;;;;;;5055300;28;20473;-69
2022/08/15 02:35:22;;;;;;;36.22;26.65;;;;;;;;;;5055527;28;20047;-69
2022/08/15 02:37:49;;;;;;;37.92;26.25;;;;;;;;;;5054948;28;20029;-69
2022/08/15 02:40:16;;;;;;;37.60;26.92;;;;;;;;;;5055471;28;20032;-69
2022/08/15 02:42:45;;;;;;;37.78;26.98;;;;;;;;;;5055065;28;20036;-69
2022/08/15 02:45:12;;;;;;;44.50;27.70;;;;;;;;;;5054733;28;20021;-69
2022/08/15 02:47:38;;;;;;;34.25;26.38;;;;;;;;;;5055007;28;20099;-68
2022/08/15 02:50:06;;;;;;;34.88;26.13;;;;;;;;;;5054946;28;20025;-70
2022/08/15 02:52:32;;;;;;;42.55;27.23;;;;;;;;;;5036776;28;20033;-69
2022/08/15 02:54:59;;;;;;;35.25;26.58;;;;;;;;;;5054354;28;20041;-69
2022/08/15 02:57:26;;;;;;;39.05;27.42;;;;;;;;;;5054508;28;20036;-69
2022/08/15 02:59:52;;;;;;;40.80;28.55;;;;;;;;;;5054668;28;20029;-68
2022/08/15 03:02:18;;;;;;;36.58;25.48;;;;;;;;;;5054372;28;20031;-70
2022/08/15 03:04:46;;;;;;;39.13;26.17;;;;;;;;;;5054376;28;20029;-69
2022/08/15 03:07:12;;;;;;;37.22;27.20;;;;;;;;;;5054662;28;20440;-69
2022/08/15 03:09:38;;;;;;;36.47;26.65;;;;;;;;;;5054278;28;20512;-69
2022/08/15 03:12:04;;;;;;;37.20;28.48;;;;;;;;;;5054217;28;20028;-69
2022/08/15 03:14:30;;;;;;;36.33;27.40;;;;;;;;;;5054722;28;20493;-71
2022/08/15 03:16:57;;;;;;;36.05;26.77;;;;;;;;;;5054144;28;20060;-70
2022/08/15 03:19:26;;;;;;;40.53;28.05;;;;;;;;;;5054438;28;20036;-69
2022/08/15 03:21:53;;;;;;;40.90;27.23;;;;;;;;;;5054291;28;20025;-69
2022/08/15 03:24:19;;;;;;;36.30;27.65;;;;;;;;;;5054024;28;20021;-69
2022/08/15 03:26:46;;;;;;;38.47;28.20;;;;;;;;;;5053986;28;20072;-70
2022/08/15 03:29:15;;;;;;;39.85;27.52;;;;;;;;;;5054232;28;20473;-69
2022/08/15 03:31:42;;;;;;;34.30;25.10;;;;;;;;;;5053941;28;20017;-68
2022/08/15 03:34:08;;;;;;;37.60;26.85;;;;;;;;;;5054662;28;20280;-68
2022/08/15 03:36:34;;;;;;;37.50;26.35;;;;;;;;;;5053815;28;20052;-68
2022/08/15 03:39:00;;;;;;;37.95;26.17;;;;;;;;;;5053798;28;20025;-68
2022/08/15 03:41:26;;;;;;;35.65;25.92;;;;;;;;;;5053907;28;20029;-70
2022/08/15 03:43:53;;;;;;;34.80;25.58;;;;;;;;;;5053699;28;20496;-69
2022/08/15 03:46:20;;;;;;;38.63;26.70;;;;;;;;;;5053679;28;20021;-69
2022/08/15 03:48:51;;;;;;;33.35;25.23;;;;;;;;;;5035770;28;20549;-68
2022/08/15 03:51:18;;;;;;;34.58;23.98;;;;;;;;;;5053850;28;20036;-69
2022/08/15 03:53:46;;;;;;;35.25;25.80;;;;;;;;;;5053358;28;20442;-69
2022/08/15 03:56:14;;;;;;;40.20;26.60;;;;;;;;;;5053763;28;20461;-69
2022/08/15 03:58:40;;;;;;;36.58;27.90;;;;;;;;;;5053472;28;20021;-70
2022/08/15 04:01:11;;;;;;;38.78;27.70;;;;;;;;;;5053349;28;20082;-69
2022/08/15 04:03:37;;;;;;;40.13;26.48;;;;;;;;;;5053654;28;20052;-68
2022/08/15 04:06:09;;;;;;;45.10;28.80;;;;;;;;;;5053594;28;20107;-69
2022/08/15 04:08:35;;;;;;;38.53;26.90;;;;;;;;;;5035218;28;20405;-70
2022/08/15 04:11:03;;;;;;;36.75;26.85;;;;;;;;;;5053241;28;20026;-69
2022/08/15 04:13:29;;;;;;;37.83;26.75;;;;;;;;;;5053781;28;20111;-69
2022/08/15 04:15:56;;;;;;;36.00;27.02;;;;;;;;;;5053495;28;20051;-69
2022/08/15 04:18:24;;;;;;;39.42;26.63;;;;;;;;;;5053143;28;20086;-70
2022/08/15 04:20:50;;;;;;;34.13;25.38;;;;;;;;;;5053191;28;20021;-69
2022/08/15 04:23:16;;;;;;;40.15;27.08;;;;;;;;;;5053078;28;20036;-69
2022/08/15 04:25:43;;;;;;;40.20;27.40;;;;;;;;;;5053656;28;20025;-70
2022/08/15 04:28:13;;;;;;;36.78;25.90;;;;;;;;;;5053103;28;20071;-69
2022/08/15 04:30:40;;;;;;;40.72;28.08;;;;;;;;;;5053644;28;20020;-69
2022/08/15 04:33:09;;;;;;;39.55;26.38;;;;;;;;;;5053058;28;20029;-70
2022/08/15 04:35:36;;;;;;;37.97;28.47;;;;;;;;;;5035663;28;20029;-71
2022/08/15 04:38:02;;;;;;;39.20;27.00;;;;;;;;;;5035137;28;20064;-69
2022/08/15 04:40:29;;;;;;;36.17;27.38;;;;;;;;;;5053271;28;20026;-68
2022/08/15 04:42:55;;;;;;;43.38;29.20;;;;;;;;;;5052902;28;20025;-68
2022/08/15 04:45:22;;;;;;;44.75;28.45;;;;;;;;;;5052903;28;20017;-69
2022/08/15 04:47:49;;;;;;;37.70;27.58;;;;;;;;;;5052906;28;20032;-70
2022/08/15 04:50:15;;;;;;;41.45;30.38;;;;;;;;;;5052903;28;20027;-68
2022/08/15 04:52:48;;;;;;;39.80;27.83;;;;;;;;;;5053895;28;20072;-69
2022/08/15 04:55:15;;;;;;;40.20;27.08;;;;;;;;;;5056858;28;20056;-71
2022/08/15 04:57:42;;;;;;;39.95;27.55;;;;;;;;;;5057086;28;20040;-68
2022/08/15 05:00:10;;;;;;;37.70;27.13;;;;;;;;;;5056715;28;20103;-69
2022/08/15 05:02:36;;;;;;;37.53;27.13;;;;;;;;;;5056629;28;20489;-71
2022/08/15 05:05:03;;;;;;;41.45;27.73;;;;;;;;;;5056896;28;20036;-69
2022/08/15 05:07:29;;;;;;;40.35;26.95;;;;;;;;;;5056880;28;20028;-69
2022/08/15 05:09:56;;;;;;;38.55;25.65;;;;;;;;;;5056612;28;20027;-70
2022/08/15 05:12:23;;;;;;;39.38;27.35;;;;;;;;;;5056826;28;20033;-69
2022/08/15 05:14:49;;;;;;;36.70;26.40;;;;;;;;;;5056543;28;20027;-69
2022/08/15 05:17:15;;;;;;;37.55;27.13;;;;;;;;;;5038540;28;20424;-69
2022/08/15 05:19:42;;;;;;;36.42;25.95;;;;;;;;;;5056366;28;20025;-69
2022/08/15 05:22:08;;;;;;;34.53;25.60;;;;;;;;;;5056618;28;20428;-69
2022/08/15 05:24:34;;;;;;;40.05;26.85;;;;;;;;;;5056292;28;20024;-69
2022/08/15 05:27:00;;;;;;;37.72;27.65;;;;;;;;;;5056259;28;20025;-70
2022/08/15 05:29:26;;;;;;;38.30;27.45;;;;;;;;;;5056515;28;20099;-69
2022/08/15 05:31:52;;;;;;;35.03;26.77;;;;;;;;;;5038295;28;20036;-69
2022/08/15 05:34:19;;;;;;;38.47;28.63;;;;;;;;;;5056631;28;20025;-70
2022/08/15 05:36:45;;;;;;;39.53;28.02;;;;;;;;;;5038141;28;20036;-68
2022/08/15 05:39:18;;;;;;;35.80;27.08;;;;;;;;;;5055988;28;20025;-69
2022/08/15 05:41:53;;;;;;;35.00;25.13;;;;;;;;;;5056544;28;20059;-70
2022/08/15 05:44:22;;;;;;;38.30;27.13;;;;;;;;;;5056218;28;20525;-69
2022/08/15 05:46:55;;;;;;;36.53;26.63;;;;;;;;;;5055938;28;20025;-70
2022/08/15 05:49:33;;;;;;;39.50;28.13;;;;;;;;;;5056467;28;20052;-68
2022/08/15 05:52:06;;;;;;;42.45;28.23;;;;;;;;;;5056120;28;20389;-69
2022/08/15 05:54:50;;;;;;;40.17;27.30;;;;;;;;;;5055656;28;20528;-70
2022/08/15 05:57:21;;;;;;;37.53;28.08;;;;;;;;;;5056229;28;20033;-70
2022/08/15 05:59:50;;;;;;;38.53;27.42;;;;;;;;;;5056214;28;20021;-69
2022/08/15 06:02:23;;;;;;;37.88;26.52;;;;;;;;;;5055795;28;20029;-69
2022/08/15 06:05:04;;;;;;;35.40;25.23;;;;;;;;;;5054890;28;20021;-68
2022/08/15 06:07:31;;;;;;;40.53;26.60;;;;;;;;;;5055475;28;20025;-69
2022/08/15 06:09:59;;;;;;;44.97;29.33;;;;;;;;;;5056000;28;20044;-69
2022/08/15 06:12:30;;;;;;;40.33;27.40;;;;;;;;;;5055453;28;20432;-69
2022/08/15 06:15:16;;;;;;;33.28;26.58;;;;;;;;;;5055458;28;20025;-71
2022/08/15 06:17:43;;;;;;;39.58;27.13;;;;;;;;;;5044972;28;20041;-69
2022/08/15 06:20:12;;;;;;;38.70;28.05;;;;;;;;;;5055258;28;20063;-68
2022/08/15 06:22:41;;;;;;;38.67;28.42;;;;;;;;;;5055405;28;20036;-70
2022/08/15 06:25:09;;;;;;;35.45;26.27;;;;;;;;;;5055499;28;20021;-69
2022/08/15 06:27:45;;;;;;;34.38;25.98;;;;;;;;;;5055172;28;20024;-70
2022/08/15 06:30:17;;;;;;;41.47;27.65;;;;;;;;;;5055415;28;20478;-69
2022/08/15 06:32:43;;;;;;;36.20;26.73;;;;;;;;;;5055352;28;20025;-69
2022/08/15 06:35:15;;;;;;;34.15;26.58;;;;;;;;;;5055499;28;20389;-70
2022/08/15 06:37:42;;;;;;;37.60;27.02;;;;;;;;;;5055239;28;20052;-70
2022/08/15 06:40:17;;;;;;;38.35;26.40;;;;;;;;;;5054892;28;20425;-69
2022/08/15 06:42:45;;;;;;;40.15;27.35;;;;;;;;;;5055314;28;20029;-68
2022/08/15 06:45:16;;;;;;;38.67;28.38;;;;;;;;;;5054813;28;20071;-70
2022/08/15 06:47:43;;;;;;;39.88;27.98;;;;;;;;;;5055056;28;20017;-68
2022/08/15 06:50:21;;;;;;;40.80;27.92;;;;;;;;;;5055021;28;20106;-69
2022/08/15 06:52:50;;;;;;;41.08;27.95;;;;;;;;;;5054652;28;20064;-70
2022/08/15 06:55:17;;;;;;;37.35;27.00;;;;;;;;;;5054480;28;20398;-69
2022/08/15 06:57:45;;;;;;;40.80;27.75;;;;;;;;;;5054829;28;20547;-69
2022/08/15 07:00:20;;;;;;;39.05;26.35;;;;;;;;;;5054490;28;20075;-69
2022/08/15 07:02:56;;;;;;;39.30;28.00;;;;;;;;;;5054675;28;20037;-69
2022/08/15 07:05:25;;;;;;;38.72;28.27;;;;;;;;;;5036564;28;20110;-67
2022/08/15 07:08:10;;;;;;;41.40;27.38;;;;;;;;;;5036605;28;20032;-68
2022/08/15 07:10:50;;;;;;;34.08;24.42;;;;;;;;;;5054860;28;20017;-69
2022/08/15 07:13:20;;;;;;;36.20;27.05;;;;;;;;;;5054870;28;20040;-70
2022/08/15 07:15:48;;;;;;;34.13;25.42;;;;;;;;;;5054504;28;20028;-69
2022/08/15 07:18:20;;;;;;;35.00;26.77;;;;;;;;;;5054712;28;20479;-69
2022/08/15 07:20:46;;;;;;;38.28;27.27;;;;;;;;;;5054679;28;20025;-69
2022/08/15 07:23:19;;;;;;;39.83;29.25;;;;;;;;;;5054253;28;20051;-69
2022/08/15 07:25:47;;;;;;;36.58;27.60;;;;;;;;;;5054335;28;20017;-70
2022/08/15 07:28:16;;;;;;;35.42;25.98;;;;;;;;;;5054234;28;20029;-69
2022/08/15 07:30:48;;;;;;;32.28;25.60;;;;;;;;;;5054257;28;20055;-69
2022/08/15 07:33:32;;;;;;;34.47;26.77;;;;;;;;;;5054155;28;20075;-69
2022/08/15 07:36:05;;;;;;;39.42;26.75;;;;;;;;;;5054871;28;20409;-69
2022/08/15 07:38:32;;;;;;;39.75;25.48;;;;;;;;;;5054387;28;20389;-70
2022/08/15 07:41:31;;;;;;;37.10;25.42;;;;;;;;;;5053805;28;20017;-69
2022/08/15 07:44:20;;;;;;;39.20;26.53;;;;;;;;;;5021039;28;20077;-69
2022/08/15 07:46:52;;;;;;;36.00;26.88;;;;;;;;;;5054235;28;20488;-70
2022/08/15 07:49:25;;;;;;;32.13;25.27;;;;;;;;;;5053600;28;20500;-69
2022/08/15 07:51:51;;;;;;;35.00;25.90;;;;;;;;;;5054089;28;20351;-70
2022/08/15 07:54:28;;;;;;;37.13;26.88;;;;;;;;;;5053336;28;20064;-69
2022/08/15 07:56:58;;;;;;;37.17;26.90;;;;;;;;;;5053476;28;20017;-68
2022/08/15 07:59:24;;;;;;;35.83;25.27;;;;;;;;;;5054036;28;20119;-68
2022/08/15 08:01:53;;;;;;;31.65;25.63;;;;;;;;;;5035409;28;20071;-71
2022/08/15 08:04:21;;;;;;;32.30;24.83;;;;;;;;;;5053728;28;20045;-70
2022/08/15 08:06:56;;;;;;;36.13;24.88;;;;;;;;;;5053886;28;20025;-69
2022/08/15 08:09:40;;;;;;;33.15;24.77;;;;;;;;;;5053836;28;20071;-69
2022/08/15 08:12:18;;;;;;;30.88;23.55;;;;;;;;;;5053600;28;20446;-70
2022/08/15 08:14:53;;;;;;;31.73;22.73;;;;;;;;;;5053599;28;20032;-69
2022/08/15 08:17:30;;;;;;;32.80;23.73;;;;;;;;;;5035163;28;20021;-69
2022/08/15 08:20:11;;;;;;;28.55;22.00;;;;;;;;;;5053785;28;20036;-69
2022/08/15 08:22:40;;;;;;;29.70;22.88;;;;;;;;;;5053030;28;20108;-69
2022/08/15 08:25:14;;;;;;;26.98;20.75;;;;;;;;;;5053368;28;20508;-70
2022/08/15 08:27:59;;;;;;;30.05;21.38;;;;;;;;;;5053056;28;20021;-70
2022/08/15 08:30:26;;;;;;;24.70;20.02;;;;;;;;;;5053344;28;20446;-71
2022/08/15 08:32:59;;;;;;;25.73;20.02;;;;;;;;;;5053109;28;20501;-71
2022/08/15 08:35:33;;;;;;;28.60;19.35;;;;;;;;;;5053839;28;20104;-70
2022/08/15 08:38:18;;;;;;;25.23;18.90;;;;;;;;;;5053614;28;20052;-70
2022/08/15 08:43:53;;;;;;;25.52;20.10;;;;;;;;;;5052695;28;20214;-68
2022/08/15 08:46:25;;;;;;;24.00;18.10;;;;;;;;;;5053507;28;20028;-70
2022/08/15 08:49:01;;;;;;;23.23;17.63;;;;;;;;;;5053478;28;20023;-70
2022/08/15 08:51:39;;;;;;;23.80;18.17;;;;;;;;;;5053443;28;20470;-69
2022/08/15 08:54:06;;;;;;;23.33;17.38;;;;;;;;;;5039817;28;20037;-70
2022/08/15 08:56:40;;;;;;;25.23;17.92;;;;;;;;;;5071439;28;20025;-69
2022/08/15 08:59:18;;;;;;;20.27;17.55;;;;;;;;;;5073191;28;20017;-70
2022/08/15 09:01:45;;;;;;;22.95;17.58;;;;;;;;;;5073279;28;20021;-69
2022/08/15 09:04:17;;;;;;;22.13;17.30;;;;;;;;;;5072819;28;20507;-69
2022/08/15 09:06:46;;;;;;;21.30;17.30;;;;;;;;;;5072772;28;20040;-69
2022/08/15 09:09:18;;;;;;;20.23;16.05;;;;;;;;;;5071250;28;20017;-70
2022/08/15 09:11:47;;;;;;;19.15;16.63;;;;;;;;;;5072726;28;20033;-69
2022/08/15 09:14:34;;;;;;;22.25;16.90;;;;;;;;;;5072769;28;20095;-69
2022/08/15 09:17:04;;;;;;;22.10;16.35;;;;;;;;;;5072767;28;20025;-70
2022/08/15 09:19:43;;;;;;;20.77;15.90;;;;;;;;;;5073002;28;20473;-70
2022/08/15 09:22:10;;;;;;;21.00;16.90;;;;;;;;;;5072988;28;20036;-70
2022/08/15 09:24:36;;;;;;;20.58;16.77;;;;;;;;;;5072643;28;20021;-70
2022/08/15 09:27:08;;;;;;;19.02;15.90;;;;;;;;;;5072635;28;20025;-69
2022/08/15 09:29:42;;;;;;;20.73;16.90;;;;;;;;;;5071040;28;20396;-69
2022/08/15 09:32:09;;;;;;;17.92;15.20;;;;;;;;;;5073164;28;20457;-69
2022/08/15 09:34:35;;;;;;;19.25;15.25;;;;;;;;;;5072555;28;20073;-70
2022/08/15 09:37:01;;;;;;;18.73;15.18;;;;;;;;;;5073038;28;20029;-69
2022/08/15 09:39:27;;;;;;;21.23;15.23;;;;;;;;;;5074490;28;20032;-70
2022/08/15 09:41:57;;;;;;;22.42;16.13;;;;;;;;;;5076523;28;20071;-68
2022/08/15 09:44:32;;;;;;;18.58;15.02;;;;;;;;;;5074750;28;20362;-69
2022/08/15 09:47:00;;;;;;;18.30;15.32;;;;;;;;;;5076197;28;20036;-69
2022/08/15 09:49:45;;;;;;;19.40;15.52;;;;;;;;;;5076510;28;20031;-69
2022/08/15 09:52:22;;;;;;;19.38;15.60;;;;;;;;;;5075931;28;20029;-71
2022/08/15 09:54:51;;;;;;;18.25;15.15;;;;;;;;;;5065821;28;20175;-70
2022/08/15 09:57:17;;;;;;;16.40;14.20;;;;;;;;;;5056053;28;20477;-70
2022/08/15 09:59:43;;;;;;;15.93;13.43;;;;;;;;;;5055966;28;20025;-70
2022/08/15 10:02:21;;;;;;;18.83;14.45;;;;;;;;;;5055524;28;20029;-69
2022/08/15 10:04:50;;;;;;;18.98;13.88;;;;;;;;;;5055845;28;20071;-69
2022/08/15 10:07:16;;;;;;;34.30;14.70;;;;;;;;;;5055860;28;20024;-70
2022/08/15 10:09:44;;;;;;;16.35;13.23;;;;;;;;;;5056071;28;20547;-69
2022/08/15 10:12:11;;;;;;;14.98;11.57;;;;;;;;;;5055729;28;20017;-69
2022/08/15 10:14:54;;;;;;;18.25;13.43;;;;;;;;;;5055960;28;20144;-70
2022/08/15 10:17:21;;;;;;;16.88;13.80;;;;;;;;;;5055910;28;20028;-70
2022/08/15 10:19:48;;;;;;;16.13;13.50;;;;;;;;;;5055302;28;20031;-69
2022/08/15 10:22:24;;;;;;;15.82;13.15;;;;;;;;;;5055737;28;20021;-70
2022/08/15 10:25:09;;;;;;;16.40;13.05;;;;;;;;;;5055812;28;20090;-69
2022/08/15 10:28:05;;;;;;;18.00;13.50;;;;;;;;;;5055478;28;20378;-69
2022/08/15 10:30:33;;;;;;;17.77;13.93;;;;;;;;;;5042467;28;20033;-69
2022/08/15 10:33:00;;;;;;;17.00;13.95;;;;;;;;;;5055031;28;20472;-68
2022/08/15 10:35:45;;;;;;;16.88;13.63;;;;;;;;;;5055578;28;20025;-69
2022/08/15 10:38:13;;;;;;;16.90;13.38;;;;;;;;;;5055857;28;20021;-70
2022/08/15 10:40:58;;;;;;;17.92;13.15;;;;;;;;;;5055207;28;20051;-69
2022/08/15 10:43:56;;;;;;;16.00;13.18;;;;;;;;;;5054813;28;20120;-70
2022/08/15 10:46:28;;;;;;;16.15;12.85;;;;;;;;;;5004715;28;20033;-70
2022/08/15 10:49:01;;;;;;;17.80;13.05;;;;;;;;;;5055337;28;20488;-70
2022/08/15 10:51:38;;;;;;;14.27;11.98;;;;;;;;;;5054480;28;20025;-70
2022/08/15 10:54:22;;;;;;;16.73;13.52;;;;;;;;;;5054617;28;20029;-69
2022/08/15 10:56:54;;;;;;;17.50;13.45;;;;;;;;;;5036715;28;20069;-70
2022/08/15 10:59:22;;;;;;;17.30;13.93;;;;;;;;;;5055160;28;20013;-69
2022/08/15 11:01:51;;;;;;;20.55;13.43;;;;;;;;;;5054361;28;20531;-70
2022/08/15 11:04:49;;;;;;;15.90;13.57;;;;;;;;;;5054482;28;20025;-70
2022/08/15 11:07:18;;;;;;;17.00;14.23;;;;;;;;;;5021636;28;20041;-68
2022/08/15 11:09:51;;;;;;;18.17;14.02;;;;;;;;;;5054424;28;20029;-69
2022/08/15 11:12:19;;;;;;;17.58;13.88;;;;;;;;;;5054645;28;20025;-69
2022/08/15 11:14:50;;;;;;;20.08;13.50;;;;;;;;;;5054331;28;20024;-69
2022/08/15 11:17:18;;;;;;;19.98;14.13;;;;;;;;;;5054473;28;20466;-70
2022/08/15 11:19:45;;;;;;;17.70;14.43;;;;;;;;;;5054181;28;20017;-70
2022/08/15 11:22:17;;;;;;;18.48;14.32;;;;;;;;;;5054299;28;20064;-70
2022/08/15 11:24:44;;;;;;;16.17;13.30;;;;;;;;;;5054398;28;20096;-70
2022/08/15 11:27:15;;;;;;;17.83;14.45;;;;;;;;;;5054325;28;20025;-71
2022/08/15 11:29:43;;;;;;;17.67;14.05;;;;;;;;;;5054013;28;20020;-71
2022/08/15 11:32:13;;;;;;;17.08;13.30;;;;;;;;;;5053933;28;20053;-69
2022/08/15 11:34:41;;;;;;;17.30;13.63;;;;;;;;;;5054204;28;20474;-69
2022/08/15 11:37:24;;;;;;;18.58;13.43;;;;;;;;;;5054660;28;20111;-70
2022/08/15 11:40:03;;;;;;;20.83;13.57;;;;;;;;;;5054109;28;20025;-69
2022/08/15 11:42:31;;;;;;;16.27;13.52;;;;;;;;;;5054267;28;20025;-70
2022/08/15 11:45:20;;;;;;;18.40;13.32;;;;;;;;;;5035873;28;20059;-70
2022/08/15 11:47:48;;;;;;;18.13;13.38;;;;;;;;;;5028024;28;20040;-70
2022/08/15 11:50:32;;;;;;;15.73;12.40;;;;;;;;;;5053919;28;20070;-71
2022/08/15 11:53:01;;;;;;;15.68;12.77;;;;;;;;;;5053596;28;20104;-71
2022/08/15 11:55:30;;;;;;;15.77;12.63;;;;;;;;;;5053255;28;20048;-69
2022/08/15 11:57:58;;;;;;;15.47;13.53;;;;;;;;;;5053553;28;20108;-70
2022/08/15 12:00:27;;;;;;;19.00;12.55;;;;;;;;;;5035556;28;20059;-70
2022/08/15 12:02:53;;;;;;;16.90;12.63;;;;;;;;;;5052510;28;20025;-69
2022/08/15 12:05:40;;;;;;;16.75;12.43;;;;;;;;;;5053915;28;20021;-70
2022/08/15 12:08:07;;;;;;;13.63;11.60;;;;;;;;;;5053741;28;20025;-69
2022/08/15 12:10:37;;;;;;;15.25;12.55;;;;;;;;;;5053619;28;20021;-69
2022/08/15 12:13:04;;;;;;;16.15;13.48;;;;;;;;;;5053360;28;20025;-69
2022/08/15 12:15:33;;;;;;;14.52;12.60;;;;;;;;;;5053557;28;20020;-71
2022/08/15 12:18:07;;;;;;;14.33;11.93;;;;;;;;;;5053535;28;20110;-69
2022/08/15 12:20:43;;;;;;;15.05;13.35;;;;;;;;;;5053476;28;20592;-69
2022/08/15 12:23:20;;;;;;;16.23;12.70;;;;;;;;;;5053428;28;20029;-69
2022/08/15 12:25:51;;;;;;;13.98;12.27;;;;;;;;;;5053168;28;20025;-68
2022/08/15 12:28:17;;;;;;;15.65;14.05;;;;;;;;;;5053362;28;20100;-71
2022/08/15 12:30:44;;;;;;;17.23;14.55;;;;;;;;;;5053141;28;20029;-69
2022/08/15 12:33:10;;;;;;;18.83;13.48;;;;;;;;;;5053336;28;20385;-70
2022/08/15 12:35:36;;;;;;;16.02;12.73;;;;;;;;;;5053614;28;20132;-70
2022/08/15 12:38:02;;;;;;;15.48;13.82;;;;;;;;;;5053037;28;20052;-69
2022/08/15 12:40:28;;;;;;;19.65;13.77;;;;;;;;;;5052992;28;20469;-70
2022/08/15 12:42:54;;;;;;;15.70;13.75;;;;;;;;;;5053000;28;20163;-70
2022/08/15 12:45:21;;;;;;;17.52;13.52;;;;;;;;;;5052853;28;20500;-69
2022/08/15 12:47:47;;;;;;;15.82;13.02;;;;;;;;;;5052907;28;20427;-69
2022/08/15 12:50:13;;;;;;;15.80;13.13;;;;;;;;;;5053153;28;20120;-69
2022/08/15 12:52:40;;;;;;;17.23;13.85;;;;;;;;;;5053176;28;20032;-69
2022/08/15 12:55:07;;;;;;;17.33;14.15;;;;;;;;;;5052705;28;20073;-70
2022/08/15 12:57:33;;;;;;;18.83;14.00;;;;;;;;;;5053081;28;20029;-69
2022/08/15 12:59:59;;;;;;;20.48;15.23;;;;;;;;;;5052792;28;20025;-71
2022/08/15 13:02:25;;;;;;;25.00;17.10;;;;;;;;;;5052995;28;20385;-69
2022/08/15 13:04:55;;;;;;;20.30;16.27;;;;;;;;;;5052752;28;20017;-69
2022/08/15 13:07:21;;;;;;;;;;;;;;;;;;5053173;28;20033;-71
2022/08/15 13:09:48;;;;;;;18.75;14.40;;;;;;;;;;5052717;28;19987;-70
2022/08/15 13:12:14;;;;;;;17.77;14.25;;;;;;;;;;5052736;28;20100;-70
2022/08/15 13:14:40;;;;;;;19.63;15.00;;;;;;;;;;5055199;28;20440;-70
2022/08/15 13:17:07;;;;;;;15.98;14.27;;;;;;;;;;5056746;28;20033;-69
2022/08/15 13:23:34;;;;;;;18.80;14.20;;;;;;;;;;5056251;28;20025;-69
2022/08/15 13:25:07;;;;;;;14.65;12.93;;;;;;;;;;5056899;28;20247;-69
2022/08/15 13:27:33;;;;;;;15.93;13.10;;;;;;;;;;5056530;28;20036;-71
2022/08/15 13:30:00;;;;;;;18.48;13.40;;;;;;;;;;5056113;28;20025;-69
2022/08/15 13:32:27;;;;;;;13.65;10.93;;;;;;;;;;5038266;28;20063;-69
2022/08/15 13:34:53;;;;;;;14.05;12.30;;;;;;;;;;5056162;28;20028;-69
2022/08/15 13:37:19;;;;;;;14.52;10.55;;;;;;;;;;5056823;28;20033;-69
2022/08/15 13:39:46;;;;;;;14.05;10.88;;;;;;;;;;5056502;28;20021;-69
2022/08/15 13:42:12;;;;;;;13.18;10.63;;;;;;;;;;5055786;28;20036;-71
2022/08/15 13:44:40;;;;;;;13.32;11.68;;;;;;;;;;5055887;28;20534;-70
2022/08/15 13:47:06;;;;;;;13.40;11.55;;;;;;;;;;5055901;28;20021;-69
2022/08/15 13:49:39;;;;;;;12.13;10.50;;;;;;;;;;5056066;28;20029;-69
2022/08/15 13:52:05;;;;;;;12.18;10.85;;;;;;;;;;5056136;28;20021;-70
2022/08/15 13:54:31;;;;;;;13.38;10.82;;;;;;;;;;5055628;28;20498;-69
2022/08/15 13:56:57;;;;;;;14.75;10.98;;;;;;;;;;5055628;28;20029;-69
2022/08/15 13:59:23;;;;;;;12.68;11.07;;;;;;;;;;5055971;28;20029;-70
2022/08/15 14:01:51;;;;;;;12.30;10.50;;;;;;;;;;5055499;28;20049;-70
2022/08/15 14:04:25;;;;;;;11.20;10.00;;;;;;;;;;5055555;28;20029;-69
2022/08/15 14:06:52;;;;;;;14.02;9.85;;;;;;;;;;5056157;28;20074;-70
2022/08/15 14:09:18;;;;;;;13.23;10.68;;;;;;;;;;5055531;28;20021;-70
2022/08/15 14:11:44;;;;;;;13.73;10.63;;;;;;;;;;5055572;28;20386;-70
2022/08/15 14:14:11;;;;;;;12.95;10.65;;;;;;;;;;5055400;28;20028;-70
2022/08/15 14:16:41;;;;;;;12.48;10.00;;;;;;;;;;5055958;28;20389;-70
2022/08/15 14:19:07;;;;;;;11.90;9.13;;;;;;;;;;5037180;28;20136;-70
2022/08/15 14:21:34;;;;;;;13.10;9.63;;;;;;;;;;5055303;28;20496;-70
2022/08/15 14:24:01;;;;;;;11.20;9.00;;;;;;;;;;5055078;28;20036;-69
2022/08/15 14:26:31;;;;;;;15.98;9.63;;;;;;;;;;5054478;28;20029;-70
2022/08/15 14:29:00;;;;;;;11.57;9.57;;;;;;;;;;5055503;28;20103;-71
2022/08/15 14:31:27;;;;;;;11.48;9.60;;;;;;;;;;5037209;28;20065;-69
2022/08/15 14:33:53;;;;;;;10.07;9.02;;;;;;;;;;5055133;28;20036;-70
2022/08/15 14:36:19;;;;;;;14.23;9.52;;;;;;;;;;5055568;28;20216;-70
2022/08/15 14:38:46;;;;;;;11.48;9.30;;;;;;;;;;5055219;28;20021;-70
2022/08/15 14:41:13;;;;;;;14.13;9.45;;;;;;;;;;5055274;28;20036;-70
2022/08/15 14:43:39;;;;;;;11.82;9.68;;;;;;;;;;5055054;28;20031;-70